Alejandro Benítez

Chefscout - Platense
6 Nov 2027
Samstag
Verarbeitung

Persönlichkeit

Anpassungsfähigkeit (9) Ehrgeiz (17) Kontroverse (4) Loyalität (11) Druck (6) Professionalität (8) Fairness (12) Temperament (7)

Profil

Trainerstil Demokratisch
Lizenz Kontinentale Pro
Entschlossenheit 9
Menschenführung 6
Motivation 7
Disziplin 8
Arbeitszufriedenheit
88%
Ermüdung
0%
Rolle Chefscout
Gehalt 70.8K p/W
Vertrag 14.03.2029

Leistung

Verhalten Gut
Trainingseffektivität
28%
Spielerentwicklung
30%
Verletzungsprävention
25%
Taktische Umsetzung
55%

Letzte Ereignisse

Nahm an einer Scouting-Besprechung teil jetzt
Empfahl ein Transferziel jetzt
Empfahl ein Transferziel jetzt
Nahm an einer Scouting-Besprechung teil 7T her
Empfahl ein Transferziel 7T her
Empfahl ein Transferziel 7T her
Empfahl ein Transferziel 7T her
Empfahl ein Transferziel 7T her

Aktuell beobachtet

178
Spieler Verein Status Fähigkeit Vertrauen Beobachtet Zuletzt beobachtet Letzte Stimme
Guillermo Rodríguez San Martín Aktiv 98 / 111 58% 1 05.07.2027 Befürworten
Ulises Vera Quilmes Aktiv 116 / 117 58% 1 14.06.2027 Befürworten
Christos Mouzakitis Hull City Aktiv 145 / 135 40% 1 31.05.2027 -
Enzo Le Fée Sunderland Aktiv 145 / 127 40% 2 30.05.2027 -
Rumarn Burrell Queens Park Rangers Aktiv 141 / 134 40% 3 29.05.2027 -
Jack McGlynn Stoke City Aktiv 119 / 145 40% 1 29.05.2027 -
Emile Smith Rowe Fulham Aktiv 155 / 154 40% 7 28.05.2027 -
Agustín Hausch Caracas Aktiv 117 / 118 40% 2 28.05.2027 -
Julio Enciso Ipswich Town Aktiv 149 / 139 40% 4 27.05.2027 -
Jack Rudoni Coventry City Aktiv 118 / 138 40% 2 27.05.2027 -
Guille Rosas Gijón Aktiv 131 / 139 40% 1 26.05.2027 -
Ichem Ferrah Pisa Aktiv 100 / 113 40% 2 25.05.2027 -
Anthony da Costa Artigas Aktiv 76 / 91 40% 1 24.05.2027 -
Lautaro Gutiérrez Girona Aktiv 117 / 105 40% 1 24.05.2027 -
Isaiah Jones Luton Town Aktiv 132 / 131 40% 5 22.05.2027 -
Isaac Price West Bromwich Albion Aktiv 143 / 131 40% 1 22.05.2027 -
Amine Adli Bournemouth Aktiv 130 / 138 40% 2 21.05.2027 -
Oumar Camara Vitoria Guimaraes Aktiv 137 / 123 40% 1 21.05.2027 -
Charles De Ketelaere Atalanta Aktiv 159 / 159 40% 3 18.05.2027 -
Jeon Jin-Woo Sheffield Wednesday Aktiv 139 / 134 40% 4 16.05.2027 -
Helinho Toluca Aktiv 151 / 144 40% 2 16.05.2027 -
Ignacio Aliseda Cerro Porteno Aktiv 134 / 131 40% 3 13.05.2027 -
Ezekiel Kwame Alladoh Sheffield United Aktiv 120 / 126 40% 2 13.05.2027 -
Loum Tchaouna Coventry City Aktiv 135 / 149 40% 4 12.05.2027 -
Ognjen Bondžulić Mladost Lucani Aktiv 94 / 119 40% 2 11.05.2027 -
Alex Woiski Caracas Aktiv 90 / 98 40% 2 11.05.2027 -
Sidiki Chérif Coventry City Aktiv 118 / 119 40% 3 10.05.2027 -
Riley Owen Wycombe Wanderers Aktiv 108 / 104 40% 1 10.05.2027 -
Inti López River Plate Aktiv 103 / 95 40% 1 10.05.2027 -
Ethan Galbraith Swansea City Aktiv 144 / 136 40% 2 09.05.2027 -
Sebastián Buitrago Atletico Nacional Aktiv 82 / 86 40% 1 08.05.2027 -
Lamine Cissé Peterborough United Aktiv 113 / 129 40% 1 05.05.2027 -
Lucas Jetten Cambuur Aktiv 118 / 114 40% 1 05.05.2027 -
Maeson King Blackpool Aktiv 108 / 113 40% 1 05.05.2027 -
Chemsdine Talbi Sunderland Aktiv 139 / 138 40% 8 03.05.2027 -
Koki Saito Queens Park Rangers Aktiv 127 / 136 40% 2 30.04.2027 -
Tomáš Rigo Stoke City Aktiv 118 / 126 40% 2 30.04.2027 -
Liam Delap Nottingham Forest Aktiv 155 / 158 40% 6 28.04.2027 -
Yehor Yarmoliuk Brentford Aktiv 143 / 137 40% 1 28.04.2027 -
Tiago Pucciarelli Alianza Lima Aktiv 94 / 104 40% 1 28.04.2027 -
Borna Knezović Casarano Aktiv 109 / 104 40% 1 28.04.2027 -
Nicolás Azambuja Danubio Aktiv 115 / 132 40% 2 27.04.2027 -
Ricardo Solbes Getafe Aktiv 100 / 114 40% 1 27.04.2027 -
Jovon Makama Norwich City Aktiv 135 / 118 40% 1 24.04.2027 -
Zahir Ibarra Elche Aktiv 92 / 95 40% 1 21.04.2027 -
Jofre Torrents Ajax Aktiv 129 / 133 40% 1 18.04.2027 -
Pietro Reggiori Pro Patria Aktiv 107 / 91 40% 1 18.04.2027 -
Camilo Durán Bloemfontein Celtic Aktiv 129 / 120 40% 1 18.04.2027 -
Wilmar Cordoba Valledupar Aktiv 97 / 91 40% 2 17.04.2027 -
Kevin Schade Brentford Aktiv 157 / 157 40% 1 14.04.2027 -
Eivind Helland Bologna Aktiv 126 / 135 40% 1 14.04.2027 -
Sunusi Audu New Edubiase United Aktiv 79 / 84 40% 2 12.04.2027 -
Sindre Walle Egeli Nottingham Forest Aktiv 120 / 129 40% 1 11.04.2027 -
Dango Ouattara Brentford Aktiv 143 / 136 40% 4 08.04.2027 -
Enzo Barrenechea Burnley Aktiv 160 / 145 40% 2 07.04.2027 -
Ramón Terrats Getafe Aktiv 136 / 149 40% 2 07.04.2027 -
Joel Orlando Real Sociedad Aktiv 100 / 107 40% 2 06.04.2027 -
Mohamed El Amine Ramdaoui USM Alger Aktiv 83 / 111 40% 1 04.04.2027 -
Gonzalo Fulham Aktiv 133 / 140 40% 2 02.04.2027 -
Million Manhoef Stoke City Aktiv 137 / 131 40% 1 02.04.2027 -
Luca Orellano Atlético Madrid Aktiv 123 / 132 40% 3 28.03.2027 -
Riquelme Thompson-Jones Shrewsbury Town Aktiv 114 / 122 40% 1 28.03.2027 -
Tobías Andrada Betis Aktiv 125 / 131 40% 1 28.03.2027 -
Mikkel Damsgaard Brentford Aktiv 137 / 145 40% 2 23.03.2027 -
Gonçalo Oliveira Benfica Aktiv 102 / 126 40% 1 23.03.2027 -
Sam Curtis Swindon Town Aktiv 107 / 102 40% 1 17.03.2027 -
Lorenzo De Leo Renate Aktiv 96 / 112 40% 2 15.03.2027 -
Alex Scott Bournemouth Aktiv 152 / 158 40% 1 15.03.2027 -
Luca Bastilla Levante Aktiv 99 / 104 40% 1 15.03.2027 -
Santiago Pierotti Lecce Aktiv 120 / 119 40% 2 12.03.2027 -
Daniel Gnahoua ES Setif Aktiv 118 / 96 40% 1 12.03.2027 -
Finn Azaz Southampton Aktiv 131 / 120 40% 2 11.03.2027 -
Max Johnston Derby County Aktiv 140 / 113 40% 1 08.03.2027 -
Mathias Jørgensen Blackburn Rovers Aktiv 111 / 116 40% 1 08.03.2027 -
Richard Koné Queens Park Rangers Aktiv 110 / 116 40% 1 03.03.2027 -
Kevin Fulham Aktiv 160 / 156 40% 2 26.02.2027 -
Roberto Iliev Slavia Sofia Aktiv 91 / 102 40% 2 21.02.2027 -
Dramane Kamagaté USM Alger Aktiv 109 / 120 40% 1 21.02.2027 -
Relebohile Mofokeng Orlando Pirates Aktiv 104 / 136 40% 1 13.02.2027 -
Simón Meza Cerrito Aktiv 83 / 86 40% 1 05.02.2027 -
Jeffrey Adjei Wa All Stars Aktiv 82 / 75 40% 1 03.02.2027 -
Tariq Lamptey Queens Park Rangers Aktiv 146 / 127 40% 1 01.02.2027 -
Habib Diarra Sunderland Aktiv 146 / 154 40% 1 01.02.2027 -
José Córdoba Norwich City Aktiv 127 / 122 40% 1 05.01.2027 -
Amar Memić Juventude Verhandlung 127 / 128 62% 1 21.12.2026 Befürworten
Thulani Billiat Utrecht Verhandlung 136 / 136 61% 1 01.12.2026 Befürworten
Agustín Quiroz Watford Aktiv 92 / 97 40% 3 28.11.2026 -
Viktor Johansson Stoke City Aktiv 133 / 130 40% 2 27.11.2026 -
Corey Addai Stockport County Aktiv 99 / 98 40% 2 27.11.2026 -
Federico Varese Racing Aktiv 102 / 112 40% 4 26.11.2026 -
Luka Andrade Montevideo City Torque Aktiv 104 / 108 40% 5 26.11.2026 -
David Fernández O'Higgins Aktiv 100 / 119 40% 2 25.11.2026 -
Tomás Ahumada Audax Italiano Aktiv 114 / 111 40% 3 22.11.2026 -
Facundo Cambeses Racing Club Aktiv 124 / 118 40% 3 22.11.2026 -
Thiago Silvero Sevilla Aktiv 120 / 143 40% 1 22.11.2026 -
Lautaro Petruchi Gimnasia y Esgrima Aktiv 110 / 112 40% 3 20.11.2026 -
Elías Báez Atlanta United FC Aktiv 127 / 137 40% 1 20.11.2026 -
Tomás Chancalay Minnesota United FC Aktiv 131 / 135 40% 1 20.11.2026 -
Esteban Glellel Quilmes Aktiv 116 / 113 40% 3 18.11.2026 -
Dayne St. Clair Inter Miami CF Aktiv 114 / 111 40% 2 18.11.2026 -
Alex Bass Peterborough United Aktiv 120 / 99 40% 2 17.11.2026 -
Raúl Rangel Brighton Aktiv 121 / 134 40% 1 17.11.2026 -
Anthony Patterson Wrexham Aktiv 142 / 139 40% 1 16.11.2026 -
Felipe Zenobio Tigre Aktiv 128 / 126 40% 4 15.11.2026 -
Nicolás Rossi Juventud Aktiv 108 / 115 40% 2 15.11.2026 -
Luciano Jachfe Nueva Chicago Aktiv 116 / 122 40% 2 14.11.2026 -
Marco Di Cesare Racing Club Aktiv 122 / 138 40% 1 14.11.2026 -
Franco Ibarra Rosario Central Aktiv 125 / 129 40% 1 14.11.2026 -
Nicolás Forastiero Deportivo Maldonado Aktiv 96 / 94 40% 7 12.11.2026 -
Lucas Verza Olimpia Aktiv 108 / 109 40% 4 10.11.2026 -
Omar Carabalí O'Higgins Aktiv 108 / 106 40% 3 09.11.2026 -
Pedro González Cerro Largo Aktiv 101 / 108 40% 2 08.11.2026 -
Diego Enríquez Sporting Cristal Aktiv 130 / 121 40% 2 08.11.2026 -
Cristopher Varela Deportivo La Guaira Aktiv 116 / 108 40% 4 07.11.2026 -
Đorđe Petrović Bournemouth Aktiv 152 / 136 40% 2 06.11.2026 -
Rodrigo Morínigo Libertad Aktiv 123 / 118 40% 2 06.11.2026 -
Michael Cooper Sheffield United Aktiv 131 / 136 40% 1 05.11.2026 -
Manuel Rodríguez Millonarios Aktiv 83 / 89 40% 1 04.11.2026 -
Matías Contrera Northampton Town Aktiv 106 / 96 40% 2 03.11.2026 -
Augusto Schott Talleres Aktiv 127 / 113 40% 1 03.11.2026 -
Santiago Montiel Independiente Aktiv 117 / 133 40% 1 03.11.2026 -
Adriano Freitas Deportivo Maldonado Aktiv 110 / 101 40% 2 30.10.2026 -
Juan Bobba Trento Aktiv 103 / 96 40% 1 30.10.2026 -
Franco Carretero Deportivo Lara Aktiv 102 / 91 40% 1 29.10.2026 -
Joaquín Silva Plaza Colonia Aktiv 114 / 114 40% 2 28.10.2026 -
James Trafford Leeds United Aktiv 123 / 148 40% 1 28.10.2026 -
Lucas Bruera Carabobo Aktiv 111 / 121 40% 3 27.10.2026 -
Juan Moreno La Luz Aktiv 115 / 112 40% 5 26.10.2026 -
Matías Dufour Sportivo Trinidense Aktiv 103 / 102 40% 5 23.10.2026 -
Facundo Vila Estudiantes Aktiv 90 / 107 40% 1 23.10.2026 -
Sebastián Jaume Albion Aktiv 106 / 100 40% 2 22.10.2026 -
Lucas Beltrán Sheffield Wednesday Aktiv 82 / 105 40% 1 21.10.2026 -
Felipe Serrés Wanderers Aktiv 96 / 109 40% 3 18.10.2026 -
Alexander Lyng SonderjyskE Aktiv 125 / 115 40% 1 16.10.2026 -
Francisco Coirolo Atenas Aktiv 93 / 99 40% 1 13.10.2026 -
Ángel Maciel Tacuarembo Aktiv 107 / 104 40% 3 11.10.2026 -
Carl Rushworth Coventry City Aktiv 120 / 132 40% 1 11.10.2026 -
Facundo Coelli Sheffield Wednesday Aktiv 107 / 91 40% 2 10.10.2026 -
Josh Keeley Luton Town Aktiv 135 / 124 40% 1 09.10.2026 -
Julián Vignolo Toulouse FC Aktiv 110 / 107 40% 1 09.10.2026 -
Pablo Suárez Rentistas Aktiv 87 / 106 40% 1 08.10.2026 -
Archie Goodwin Charlotte Football Club Aktiv 108 / 101 40% 1 07.10.2026 -
Hugo Gallardo Veracruz Aktiv 99 / 84 40% 1 04.10.2026 -
Federico Losas Chacarita Juniors Aktiv 120 / 107 40% 1 01.10.2026 -
Francisco Casanova Cerrito Aktiv 97 / 95 40% 1 29.09.2026 -
Brandon Álvarez Penarol Aktiv 76 / 87 40% 1 22.09.2026 -
Luis Yanes Real Cartagena Aktiv 88 / 101 40% 1 22.09.2026 -
Nahuel Galardi Maipú Aktiv 109 / 114 40% 1 19.09.2026 -
Tomás Lingua Burnley Aktiv 103 / 81 40% 1 19.09.2026 -
Weibmar Asprilla Independiente Medellin Aktiv 104 / 118 40% 2 18.09.2026 -
Víctor Cabezas Union Magdalena Aktiv 124 / 107 40% 1 13.09.2026 -
David Agudelo Depor Aktiv 94 / 103 40% 2 11.09.2026 -
Alejandro Aguilar Bogota Aktiv 96 / 90 40% 1 11.09.2026 -
Juan Diego Jaramillo Depor Aktiv 98 / 101 40% 1 10.09.2026 -
Ángel Espínola Sportivo Luqueno Aktiv 95 / 97 40% 1 09.09.2026 -
Fernando Tapia Club America Aktiv 110 / 132 40% 1 09.09.2026 -
Emiliano Bermúdez Oriental Aktiv 99 / 99 40% 1 08.09.2026 -
Agustín Requena Progreso Aktiv 103 / 99 40% 2 07.09.2026 -
Juan Mosquera Portland Timbers Aktiv 131 / 136 40% 1 07.09.2026 -
Lucas Sanabria LA Galaxy Aktiv 138 / 114 40% 1 07.09.2026 -
Miguel Hurtado Valledupar Aktiv 102 / 106 40% 2 05.09.2026 -
Jaime Mora Envigado Aktiv 101 / 105 40% 3 02.09.2026 -
Mauro Silveira Junior Aktiv 117 / 111 40% 1 01.09.2026 -
Bruno Hernández Cerro Largo Aktiv 91 / 99 40% 1 31.08.2026 -
Sebastián Lentinelly Olimpia Aktiv 104 / 100 40% 1 28.08.2026 -
Zacarías López Iquique Aktiv 106 / 91 40% 2 27.08.2026 -
Johan Portilla Deportes Quindio Aktiv 91 / 104 40% 1 25.08.2026 -
Nicolás Campisi Sportivo Luqueno Aktiv 123 / 116 40% 2 24.08.2026 -
Franklin Mosquera Jaguares Aktiv 90 / 93 40% 1 22.08.2026 -
Roameth Romaña Llaneros Aktiv 100 / 99 40% 1 20.08.2026 -
Andres Duque Universitario Popayan Aktiv 104 / 101 40% 1 19.08.2026 -
Diego Romero Universitario Aktiv 112 / 113 40% 1 16.08.2026 -
Andrés Gudiño Cruz Azul Aktiv 130 / 99 40% 1 16.08.2026 -
Cristian Peñate Barranquilla Aktiv 79 / 93 40% 1 16.08.2026 -
Felix Mosquera Deportes Quindio Aktiv 80 / 91 40% 1 16.08.2026 -
Gonzalo Falcón Cienciano Aktiv 102 / 101 40% 1 13.08.2026 -
Jesus Montero Jaguares Aktiv 81 / 98 40% 1 13.08.2026 -
Reynaldo Fontalvo Real Cartagena Aktiv 97 / 89 40% 1 09.08.2026 -